Time;durP1;ratioP1;P1;durP2;ratioP2;P2;SDS_P1;SDS_P2;PMS_P1;PMS_P2;Temp;Humidity;BMP_temperature;BMP_pressure;BME280_temperature;BME280_humidity;BME280_pressure;Samples;Min_cycle;Max_cycle;Signal;HPM_P1;HPM_P2
2023/01/24 00:01:48;;;;;;;;;;;;;;;-0.78;100.00;96879.28;10521286;28;3128;-76
2023/01/24 00:06:51;;;;;;;;;;;;;;;-0.78;100.00;96893.28;10522937;28;3127;-77
2023/01/24 00:11:54;;;;;;;;;;;;;;;-0.76;100.00;96891.31;10515246;28;3211;-76
2023/01/24 00:16:58;;;;;;;;;;;;;;;-0.78;100.00;96892.47;10516257;28;3339;-77
2023/01/24 00:22:01;;;;;;;;;;;;;;;-0.77;100.00;96897.56;10531619;28;3116;-77
2023/01/24 00:27:04;;;;;;;;;;;;;;;-0.76;100.00;96896.59;10529234;28;3218;-75
2023/01/24 00:32:08;;;;;;;;;;;;;;;-0.68;100.00;96904.47;10524484;28;3331;-76
2023/01/24 00:37:11;;;;;;;;;;;;;;;-0.74;100.00;96899.88;10517724;28;3120;-77
2023/01/24 00:42:14;;;;;;;;;;;;;;;-0.69;100.00;96902.00;10527520;28;3238;-76
2023/01/24 00:47:17;;;;;;;;;;;;;;;-0.74;100.00;96902.53;10531941;28;3120;-75
2023/01/24 00:52:20;;;;;;;;;;;;;;;-0.73;100.00;96908.63;10524757;28;3231;-76
2023/01/24 00:57:24;;;;;;;;;;;;;;;-0.72;100.00;96908.44;10527434;28;3286;-76
2023/01/24 01:02:28;;;;;;;;;;;;;;;-0.74;100.00;96909.63;10531627;28;3151;-75
2023/01/24 01:07:31;;;;;;;;;;;;;;;-0.75;100.00;96914.09;10523485;28;3255;-76
2023/01/24 01:12:34;;;;;;;;;;;;;;;-0.70;100.00;96918.81;10522013;28;3176;-78
2023/01/24 01:17:37;;;;;;;;;;;;;;;-0.82;100.00;96924.53;10524718;28;3195;-76
2023/01/24 01:22:41;;;;;;;;;;;;;;;-0.73;100.00;96917.38;10524289;28;3192;-76
2023/01/24 01:27:44;;;;;;;;;;;;;;;-0.84;100.00;96920.38;10516600;28;3295;-76
2023/01/24 01:32:47;;;;;;;;;;;;;;;-0.82;100.00;96924.53;10522232;28;3152;-77
2023/01/24 01:37:51;;;;;;;;;;;;;;;-0.82;100.00;96907.84;10522921;28;3161;-78
2023/01/24 01:42:55;;;;;;;;;;;;;;;-0.76;100.00;96912.44;10527380;28;3174;-77
2023/01/24 01:47:58;;;;;;;;;;;;;;;-0.76;100.00;96914.22;10532891;28;3529;-75
2023/01/24 01:53:01;;;;;;;;;;;;;;;-0.76;100.00;96917.72;10527036;28;3215;-77
2023/01/24 01:58:04;;;;;;;;;;;;;;;-0.71;100.00;96918.00;10524921;28;3231;-76
2023/01/24 02:08:28;;;;;;;;;;;;;;;-0.60;100.00;96917.59;10527517;28;3182;-77
2023/01/24 02:13:32;;;;;;;;;;;;;;;-0.65;100.00;96919.94;10517414;28;3151;-77
2023/01/24 02:18:35;;;;;;;;;;;;;;;-0.72;100.00;96921.63;10527632;28;3186;-76
2023/01/24 02:23:38;;;;;;;;;;;;;;;-0.73;100.00;96922.63;10528986;28;3257;-78
2023/01/24 02:28:42;;;;;;;;;;;;;;;-0.74;100.00;96920.19;10524374;28;3191;-78
2023/01/24 02:33:45;;;;;;;;;;;;;;;-0.74;100.00;96905.16;10519078;28;3168;-76
2023/01/24 02:38:49;;;;;;;;;;;;;;;-0.74;100.00;96912.25;10524841;28;3286;-78
2023/01/24 02:43:52;;;;;;;;;;;;;;;-0.74;100.00;96913.09;10524137;28;3200;-78
2023/01/24 02:48:55;;;;;;;;;;;;;;;-0.79;100.00;96912.78;10519465;28;3266;-78
2023/01/24 02:53:59;;;;;;;;;;;;;;;-0.82;100.00;96905.22;10521849;28;3195;-78
2023/01/24 02:59:02;;;;;;;;;;;;;;;-0.76;100.00;96909.81;10520636;28;3195;-77
2023/01/24 03:04:06;;;;;;;;;;;;;;;-0.78;100.00;96898.56;10524048;28;3214;-76
2023/01/24 03:09:19;;;;;;;;;;;;;;;-0.78;100.00;96903.03;10525117;28;3259;-77
2023/01/24 03:35:53;;;;;;;;;;;;;;;-0.65;100.00;96919.13;10515836;28;3217;-77
2023/01/24 03:40:56;;;;;;;;;;;;;;;-0.63;100.00;96917.16;10520331;28;3198;-78
2023/01/24 03:45:59;;;;;;;;;;;;;;;-0.67;100.00;96932.50;10521104;28;3187;-78
2023/01/24 03:56:23;;;;;;;;;;;;;;;-0.69;100.00;96952.19;10519502;28;3155;-76
2023/01/24 04:01:27;;;;;;;;;;;;;;;-0.67;100.00;96955.44;10523342;28;3080;-77
2023/01/24 04:06:30;;;;;;;;;;;;;;;-0.71;100.00;96956.78;10523361;28;3188;-75
2023/01/24 04:11:34;;;;;;;;;;;;;;;-0.65;100.00;96942.88;10527889;28;3200;-76
2023/01/24 04:16:37;;;;;;;;;;;;;;;-0.71;100.00;96946.22;10519290;28;3250;-77
2023/01/24 04:21:40;;;;;;;;;;;;;;;-0.63;100.00;96948.84;10523706;28;3142;-77
2023/01/24 04:26:44;;;;;;;;;;;;;;;-0.73;100.00;96943.75;10527896;28;3166;-77
2023/01/24 04:31:48;;;;;;;;;;;;;;;-0.77;100.00;96937.19;10522540;28;3324;-75
2023/01/24 04:36:51;;;;;;;;;;;;;;;-0.66;100.00;96943.88;10530503;28;3187;-75
2023/01/24 04:41:55;;;;;;;;;;;;;;;-0.65;100.00;96940.25;10528984;28;3163;-75
2023/01/24 04:46:58;;;;;;;;;;;;;;;-0.68;100.00;96938.78;10523381;28;3116;-75
2023/01/24 04:52:04;;;;;;;;;;;;;;;-0.63;100.00;96943.56;10526064;28;3304;-77
2023/01/24 04:57:07;;;;;;;;;;;;;;;-0.59;100.00;96937.72;10527195;28;3186;-76
2023/01/24 05:02:11;;;;;;;;;;;;;;;-0.61;100.00;96939.72;10527762;28;3171;-75
2023/01/24 05:07:14;;;;;;;;;;;;;;;-0.57;100.00;96943.69;10523547;28;3178;-77
2023/01/24 05:12:18;;;;;;;;;;;;;;;-0.54;100.00;96947.78;10519048;28;3993;-75
2023/01/24 05:17:21;;;;;;;;;;;;;;;-0.56;100.00;96937.41;10529392;28;3262;-77
2023/01/24 05:22:24;;;;;;;;;;;;;;;-0.49;100.00;96949.91;10527648;28;3119;-76
2023/01/24 05:27:27;;;;;;;;;;;;;;;-0.48;100.00;96951.53;10529944;28;3190;-77
2023/01/24 05:32:31;;;;;;;;;;;;;;;-0.48;100.00;96959.47;10520927;28;3194;-75
2023/01/24 05:37:34;;;;;;;;;;;;;;;-0.47;100.00;96958.47;10530609;28;3210;-76
2023/01/24 05:42:38;;;;;;;;;;;;;;;-0.47;100.00;96966.38;10525405;28;3160;-76
2023/01/24 05:47:41;;;;;;;;;;;;;;;-0.43;100.00;96965.88;10535226;28;3212;-77
2023/01/24 05:52:44;;;;;;;;;;;;;;;-0.48;100.00;96972.66;10519236;28;3271;-76
2023/01/24 05:57:47;;;;;;;;;;;;;;;-0.48;100.00;96978.78;10525268;28;3124;-76
2023/01/24 06:02:51;;;;;;;;;;;;;;;-0.51;100.00;96978.28;10526877;28;3178;-77
2023/01/24 06:07:54;;;;;;;;;;;;;;;-0.42;100.00;96978.06;10524228;28;3342;-76
2023/01/24 06:12:58;;;;;;;;;;;;;;;-0.38;100.00;96983.81;10535209;28;3163;-76
2023/01/24 06:18:01;;;;;;;;;;;;;;;-0.40;100.00;96986.63;10528844;28;3263;-77
2023/01/24 06:23:07;;;;;;;;;;;;;;;-0.34;100.00;96993.88;10520814;28;3238;-76
2023/01/24 06:28:11;;;;;;;;;;;;;;;-0.36;100.00;96997.69;10518978;28;3227;-76
2023/01/24 06:33:15;;;;;;;;;;;;;;;-0.37;100.00;97002.16;10522116;28;3247;-76
2023/01/24 06:38:18;;;;;;;;;;;;;;;-0.38;100.00;97004.94;10526102;28;3133;-74
2023/01/24 06:43:21;;;;;;;;;;;;;;;-0.39;100.00;97014.69;10518318;28;3327;-74
2023/01/24 06:48:24;;;;;;;;;;;;;;;-0.42;100.00;97019.53;10523205;28;3136;-75
2023/01/24 06:53:28;;;;;;;;;;;;;;;-0.51;100.00;97016.09;10521950;28;3182;-75
2023/01/24 06:58:31;;;;;;;;;;;;;;;-0.48;100.00;97025.50;10517634;28;3441;-77
2023/01/24 07:03:34;;;;;;;;;;;;;;;-0.47;100.00;97027.97;10514392;28;3202;-76
2023/01/24 07:08:38;;;;;;;;;;;;;;;-0.44;100.00;97032.91;10523931;28;3182;-76
2023/01/24 07:13:42;;;;;;;;;;;;;;;-0.45;100.00;97033.06;10519247;28;3124;-75
2023/01/24 07:18:47;;;;;;;;;;;;;;;-0.40;100.00;97028.91;10512799;28;3143;-76
2023/01/24 07:23:51;;;;;;;;;;;;;;;-0.29;100.00;97031.16;10504896;28;3167;-76
2023/01/24 07:28:56;;;;;;;;;;;;;;;-0.37;100.00;97041.78;10528223;28;3218;-76
2023/01/24 07:34:00;;;;;;;;;;;;;;;-0.38;100.00;97042.78;10526672;28;3262;-75
2023/01/24 07:39:04;;;;;;;;;;;;;;;-0.31;100.00;97048.19;10522488;28;3183;-77
2023/01/24 07:44:07;;;;;;;;;;;;;;;-0.25;100.00;97041.38;10526719;28;3203;-75
2023/01/24 07:49:11;;;;;;;;;;;;;;;-0.21;100.00;97047.97;10516986;28;3147;-74
2023/01/24 07:54:14;;;;;;;;;;;;;;;-0.19;100.00;97056.53;10518141;28;3143;-75
2023/01/24 07:59:18;;;;;;;;;;;;;;;-0.12;100.00;97068.06;10518479;28;3147;-76
2023/01/24 08:04:39;;;;;;;;;;;;;;;-0.12;100.00;97073.34;10515038;28;3168;-76
2023/01/24 08:09:42;;;;;;;;;;;;;;;-0.09;100.00;97073.81;10517846;28;3147;-74
2023/01/24 08:14:46;;;;;;;;;;;;;;;-0.01;100.00;97079.03;10521354;28;3198;-75
2023/01/24 08:19:49;;;;;;;;;;;;;;;-0.03;100.00;97083.69;10514591;28;3187;-74
2023/01/24 08:25:00;;;;;;;;;;;;;;;0.03;100.00;97081.34;10520504;28;3258;-76
2023/01/24 08:30:03;;;;;;;;;;;;;;;0.01;100.00;97086.00;10512546;28;3167;-76
2023/01/24 08:35:07;;;;;;;;;;;;;;;0.03;100.00;97090.09;10524278;28;3266;-74
2023/01/24 08:40:10;;;;;;;;;;;;;;;0.10;100.00;97090.22;10514955;28;3128;-75
2023/01/24 08:45:14;;;;;;;;;;;;;;;0.05;100.00;97097.84;10516975;28;3301;-76
2023/01/24 08:50:19;;;;;;;;;;;;;;;0.16;100.00;97102.75;10524077;28;3179;-79
2023/01/24 08:55:23;;;;;;;;;;;;;;;0.13;100.00;97103.09;10526253;28;3163;-77
2023/01/24 09:00:27;;;;;;;;;;;;;;;0.26;100.00;97104.16;10522706;28;3136;-76
2023/01/24 09:05:30;;;;;;;;;;;;;;;0.35;100.00;97104.91;10528335;28;3116;-75
2023/01/24 09:10:33;;;;;;;;;;;;;;;0.44;100.00;97103.03;10523324;28;3210;-75
2023/01/24 09:15:37;;;;;;;;;;;;;;;0.45;100.00;97113.44;10520919;28;3301;-74
2023/01/24 09:20:41;;;;;;;;;;;;;;;0.50;100.00;97113.72;10523817;28;3205;-74
2023/01/24 09:25:44;;;;;;;;;;;;;;;0.39;100.00;97114.16;10534037;28;3262;-74
2023/01/24 09:30:49;;;;;;;;;;;;;;;0.40;100.00;97129.03;10532103;28;3215;-75
2023/01/24 09:35:53;;;;;;;;;;;;;;;0.32;100.00;97125.59;10525773;28;3335;-75
2023/01/24 09:40:56;;;;;;;;;;;;;;;0.45;100.00;97124.03;10527470;28;3210;-77
2023/01/24 09:46:02;;;;;;;;;;;;;;;0.35;100.00;97125.25;10527670;28;3203;-79
2023/01/24 09:51:05;;;;;;;;;;;;;;;0.39;100.00;97129.22;10523878;28;3275;-75
2023/01/24 09:56:12;;;;;;;;;;;;;;;0.37;100.00;97125.91;10525022;28;3202;-76
2023/01/24 10:01:18;;;;;;;;;;;;;;;0.33;100.00;97130.72;10521964;28;3132;-74
2023/01/24 10:06:21;;;;;;;;;;;;;;;0.41;100.00;97132.50;10529314;28;3190;-74
2023/01/24 10:11:25;;;;;;;;;;;;;;;0.37;100.00;97132.00;10525539;28;3188;-75
2023/01/24 10:16:28;;;;;;;;;;;;;;;0.47;100.00;97124.66;10525120;28;3174;-77
2023/01/24 10:21:32;;;;;;;;;;;;;;;0.54;100.00;97125.59;10520266;28;3193;-76
2023/01/24 10:26:38;;;;;;;;;;;;;;;0.41;100.00;97137.78;10528985;28;3183;-77
2023/01/24 10:31:41;;;;;;;;;;;;;;;0.40;100.00;97126.38;10528791;28;3161;-74
2023/01/24 10:36:45;;;;;;;;;;;;;;;0.50;100.00;97121.66;10526771;28;3171;-74
2023/01/24 10:41:48;;;;;;;;;;;;;;;0.48;100.00;97122.84;10519722;28;3305;-75
2023/01/24 10:46:53;;;;;;;;;;;;;;;0.43;100.00;97126.00;10529864;28;3236;-74
2023/01/24 10:51:57;;;;;;;;;;;;;;;0.59;100.00;97118.97;10524507;28;3271;-75
2023/01/24 10:57:01;;;;;;;;;;;;;;;0.49;100.00;97109.44;10519996;28;3179;-74
2023/01/24 11:02:04;;;;;;;;;;;;;;;0.47;100.00;97108.78;10521131;28;3148;-75
2023/01/24 11:07:08;;;;;;;;;;;;;;;0.59;100.00;97113.66;10515730;28;3167;-75
2023/01/24 11:12:12;;;;;;;;;;;;;;;0.63;100.00;97110.47;10517859;28;3319;-74
2023/01/24 11:17:15;;;;;;;;;;;;;;;0.52;100.00;97097.69;10505955;28;3343;-73
2023/01/24 11:22:19;;;;;;;;;;;;;;;0.40;100.00;97101.75;10520353;28;3369;-75
2023/01/24 11:27:23;;;;;;;;;;;;;;;0.40;100.00;97093.81;10518399;28;3271;-75
2023/01/24 11:32:26;;;;;;;;;;;;;;;0.41;100.00;97096.28;10507547;28;3276;-75
2023/01/24 11:37:30;;;;;;;;;;;;;;;0.58;100.00;97090.88;10522266;28;3323;-73
2023/01/24 11:42:34;;;;;;;;;;;;;;;0.77;100.00;97093.00;10525630;28;3342;-75
2023/01/24 11:47:37;;;;;;;;;;;;;;;0.59;100.00;97081.91;10523459;28;3358;-74
2023/01/24 11:52:41;;;;;;;;;;;;;;;0.62;100.00;97085.00;10520872;28;3766;-75
2023/01/24 11:57:44;;;;;;;;;;;;;;;0.55;100.00;97076.16;10516548;28;3314;-74
2023/01/24 12:02:47;;;;;;;;;;;;;;;0.58;100.00;97078.44;10518562;28;3259;-75
2023/01/24 12:07:51;;;;;;;;;;;;;;;0.57;100.00;97075.97;10525708;28;3311;-75
2023/01/24 12:12:54;;;;;;;;;;;;;;;0.61;100.00;97075.44;10523937;28;3293;-76
2023/01/24 12:17:58;;;;;;;;;;;;;;;0.68;100.00;97067.59;10526944;28;3282;-75
2023/01/24 12:23:01;;;;;;;;;;;;;;;0.70;100.00;97060.28;10523156;28;3331;-77
2023/01/24 12:28:06;;;;;;;;;;;;;;;0.69;100.00;97066.59;10529955;28;3279;-77
2023/01/24 12:33:11;;;;;;;;;;;;;;;0.67;100.00;97058.03;10531032;28;3337;-76
2023/01/24 12:38:14;;;;;;;;;;;;;;;0.73;100.00;97044.88;10525478;28;3283;-75
2023/01/24 12:43:18;;;;;;;;;;;;;;;0.78;100.00;97049.66;10525627;28;3264;-75
2023/01/24 12:48:21;;;;;;;;;;;;;;;0.94;100.00;97046.81;10527705;28;3386;-74
2023/01/24 12:53:25;;;;;;;;;;;;;;;0.86;100.00;97041.63;10522640;28;3308;-73
2023/01/24 12:58:28;;;;;;;;;;;;;;;1.02;100.00;97038.00;10527464;28;3254;-74
2023/01/24 13:03:31;;;;;;;;;;;;;;;0.92;100.00;97043.53;10510906;28;3325;-75
2023/01/24 13:08:34;;;;;;;;;;;;;;;0.81;100.00;97033.38;10532060;28;3321;-74
2023/01/24 13:13:40;;;;;;;;;;;;;;;0.93;100.00;97037.25;10521061;28;3335;-74
2023/01/24 13:18:44;;;;;;;;;;;;;;;0.90;100.00;97037.63;10544161;27;3292;-73
2023/01/24 13:23:47;;;;;;;;;;;;;;;0.91;100.00;97036.59;10529040;28;3366;-76
2023/01/24 13:28:51;;;;;;;;;;;;;;;0.80;100.00;97035.22;10524611;28;3345;-74
2023/01/24 13:33:55;;;;;;;;;;;;;;;0.85;100.00;97032.03;10526406;28;3335;-75
2023/01/24 13:38:59;;;;;;;;;;;;;;;0.78;100.00;97033.78;10526357;28;3332;-74
2023/01/24 13:44:04;;;;;;;;;;;;;;;0.68;100.00;97041.94;10534241;28;3276;-76
2023/01/24 13:49:07;;;;;;;;;;;;;;;0.67;100.00;97048.25;10527488;28;3397;-76
2023/01/24 13:54:11;;;;;;;;;;;;;;;0.77;100.00;97054.13;10524437;28;3315;-75
2023/01/24 13:59:15;;;;;;;;;;;;;;;0.71;100.00;97048.72;10521017;28;3319;-75
2023/01/24 14:04:18;;;;;;;;;;;;;;;0.73;100.00;97058.13;10518350;28;3283;-74
2023/01/24 14:09:22;;;;;;;;;;;;;;;0.80;100.00;97058.22;10528407;28;3655;-74
2023/01/24 14:14:26;;;;;;;;;;;;;;;0.70;100.00;97052.34;10531739;28;3315;-75
2023/01/24 14:19:29;;;;;;;;;;;;;;;0.60;100.00;97062.38;10532016;28;3337;-76
2023/01/24 14:24:33;;;;;;;;;;;;;;;0.65;100.00;97065.31;10539922;28;3314;-75
2023/01/24 14:29:36;;;;;;;;;;;;;;;0.54;100.00;97070.03;10531461;28;3314;-77
2023/01/24 14:34:40;;;;;;;;;;;;;;;0.58;100.00;97072.34;10532495;28;3324;-76
2023/01/24 14:39:43;;;;;;;;;;;;;;;0.68;100.00;97072.91;10529451;28;3362;-75
2023/01/24 14:44:46;;;;;;;;;;;;;;;0.59;100.00;97089.84;10523007;28;3364;-76
2023/01/24 14:49:50;;;;;;;;;;;;;;;0.58;100.00;97090.88;10507060;28;3757;-75
2023/01/24 14:54:53;;;;;;;;;;;;;;;0.62;100.00;97102.72;10525980;28;3435;-76
2023/01/24 14:59:56;;;;;;;;;;;;;;;0.77;100.00;97099.13;10521081;28;3334;-74
2023/01/24 15:05:00;;;;;;;;;;;;;;;0.69;100.00;97099.16;10520065;28;3354;-74
2023/01/24 15:10:03;;;;;;;;;;;;;;;0.68;100.00;97117.88;10525554;28;3398;-76
2023/01/24 15:15:07;;;;;;;;;;;;;;;0.65;100.00;97121.72;10520951;28;3318;-77
2023/01/24 15:20:11;;;;;;;;;;;;;;;0.63;100.00;97128.19;10523387;28;3337;-74
2023/01/24 15:25:15;;;;;;;;;;;;;;;0.47;100.00;97116.72;10547697;27;3275;-74
2023/01/24 15:30:18;;;;;;;;;;;;;;;0.42;100.00;97116.44;10521736;28;3282;-74
2023/01/24 15:35:23;;;;;;;;;;;;;;;0.45;100.00;97124.03;10526139;28;3487;-75
2023/01/24 15:40:27;;;;;;;;;;;;;;;0.44;100.00;97125.00;10526768;28;3322;-73
2023/01/24 15:45:30;;;;;;;;;;;;;;;0.48;100.00;97134.25;10521712;28;3335;-73
2023/01/24 15:55:54;;;;;;;;;;;;;;;0.54;100.00;97138.84;10525910;28;3270;-75
2023/01/24 16:00:57;;;;;;;;;;;;;;;0.53;100.00;97131.91;10525367;28;3575;-76
2023/01/24 16:06:01;;;;;;;;;;;;;;;0.54;100.00;97138.00;10524020;28;3259;-75
2023/01/24 16:11:04;;;;;;;;;;;;;;;0.55;100.00;97139.66;10517291;28;3350;-76
2023/01/24 16:16:07;;;;;;;;;;;;;;;0.59;100.00;97134.84;10524957;28;3318;-76
2023/01/24 16:21:11;;;;;;;;;;;;;;;0.58;100.00;97139.31;10506539;28;3412;-76
2023/01/24 16:26:14;;;;;;;;;;;;;;;0.54;100.00;97133.53;10523999;28;3367;-76
2023/01/24 16:31:18;;;;;;;;;;;;;;;0.58;100.00;97135.84;10519830;28;3322;-76
2023/01/24 16:36:22;;;;;;;;;;;;;;;0.61;100.00;97149.53;10523365;28;3374;-75
2023/01/24 16:41:25;;;;;;;;;;;;;;;0.59;100.00;97159.47;10518775;28;3298;-76
2023/01/24 16:46:29;;;;;;;;;;;;;;;0.67;100.00;97163.88;10524247;28;3302;-75
2023/01/24 16:51:32;;;;;;;;;;;;;;;0.69;100.00;97161.88;10520675;28;3434;-75
2023/01/24 16:56:35;;;;;;;;;;;;;;;0.61;100.00;97169.88;10521744;28;3346;-76
2023/01/24 17:01:39;;;;;;;;;;;;;;;0.58;100.00;97171.06;10531396;28;3669;-74
2023/01/24 17:06:43;;;;;;;;;;;;;;;0.57;100.00;97168.56;10532235;28;3437;-77
2023/01/24 17:11:46;;;;;;;;;;;;;;;0.57;100.00;97158.00;10529047;28;3285;-75
2023/01/24 17:16:49;;;;;;;;;;;;;;;0.60;100.00;97163.75;10510495;28;3302;-76
2023/01/24 17:21:53;;;;;;;;;;;;;;;0.56;100.00;97164.28;10523301;28;3394;-75
2023/01/24 17:26:56;;;;;;;;;;;;;;;0.62;100.00;97164.41;10522484;28;3319;-75
2023/01/24 17:32:00;;;;;;;;;;;;;;;0.66;100.00;97170.19;10520506;28;3283;-72
2023/01/24 17:37:03;;;;;;;;;;;;;;;0.65;100.00;97168.53;10522347;28;3359;-71
2023/01/24 17:42:06;;;;;;;;;;;;;;;0.65;100.00;97171.19;10527556;28;3293;-71
2023/01/24 17:47:10;;;;;;;;;;;;;;;0.66;100.00;97172.81;10533524;28;3342;-72
2023/01/24 17:52:16;;;;;;;;;;;;;;;0.62;100.00;97171.53;10516949;28;3282;-71
2023/01/24 17:57:26;;;;;;;;;;;;;;;0.65;100.00;97166.72;10527494;28;3369;-71
2023/01/24 18:02:29;;;;;;;;;;;;;;;0.62;100.00;97171.53;10524538;28;3343;-71
2023/01/24 18:07:32;;;;;;;;;;;;;;;0.62;100.00;97171.53;10528807;28;3339;-71
2023/01/24 18:12:36;;;;;;;;;;;;;;;0.62;100.00;97176.81;10521646;28;3327;-72
2023/01/24 18:17:39;;;;;;;;;;;;;;;0.62;100.00;97171.53;10527123;28;3673;-73
2023/01/24 18:22:43;;;;;;;;;;;;;;;0.66;100.00;97162.25;10529000;28;3322;-72
2023/01/24 18:27:46;;;;;;;;;;;;;;;0.61;100.00;97170.69;10527350;28;3291;-74
2023/01/24 18:32:49;;;;;;;;;;;;;;;0.55;100.00;97166.13;10526050;28;3438;-78
2023/01/24 18:37:54;;;;;;;;;;;;;;;0.56;100.00;97164.28;10520085;28;3704;-78
2023/01/24 18:42:58;;;;;;;;;;;;;;;0.53;100.00;97163.66;10526275;28;3310;-74
2023/01/24 18:48:01;;;;;;;;;;;;;;;0.50;100.00;97169.28;10523048;28;3345;-76
2023/01/24 18:53:05;;;;;;;;;;;;;;;0.54;100.00;97170.59;10528398;28;3458;-74
2023/01/24 18:58:10;;;;;;;;;;;;;;;0.53;100.00;97163.66;10523747;28;3310;-75
2023/01/24 19:03:13;;;;;;;;;;;;;;;0.54;100.00;97161.81;10524299;28;3250;-73
2023/01/24 19:08:17;;;;;;;;;;;;;;;0.57;100.00;97158.81;10532106;28;3355;-72
2023/01/24 19:13:20;;;;;;;;;;;;;;;0.62;100.00;97163.59;10521966;28;3454;-72
2023/01/24 19:18:24;;;;;;;;;;;;;;;0.54;100.00;97162.66;10525794;28;3403;-70
2023/01/24 19:23:27;;;;;;;;;;;;;;;0.49;100.00;97162.34;10527335;28;3315;-72
2023/01/24 19:28:36;;;;;;;;;;;;;;;0.43;100.00;97162.22;10514044;28;3323;-73
2023/01/24 19:33:41;;;;;;;;;;;;;;;0.51;100.00;97164.84;10526096;28;3402;-72
2023/01/24 19:38:45;;;;;;;;;;;;;;;0.48;100.00;97175.75;10525293;28;3398;-72
2023/01/24 19:43:49;;;;;;;;;;;;;;;0.52;100.00;97177.88;10516105;28;3275;-73
2023/01/24 19:49:12;;;;;;;;;;;;;;;0.50;100.00;97179.84;10525709;28;3442;-71
2023/01/24 19:54:16;;;;;;;;;;;;;;;0.45;100.00;97187.53;10520298;28;3259;-72
2023/01/24 19:59:20;;;;;;;;;;;;;;;0.41;100.00;97186.22;10524194;28;3290;-73
2023/01/24 20:04:23;;;;;;;;;;;;;;;0.42;100.00;97189.69;10526201;28;3343;-71
2023/01/24 20:09:27;;;;;;;;;;;;;;;0.33;100.00;97194.22;10518825;28;3625;-71
2023/01/24 20:14:31;;;;;;;;;;;;;;;0.32;100.00;97194.38;10519022;28;3333;-70
2023/01/24 20:19:35;;;;;;;;;;;;;;;0.31;100.00;97193.53;10523547;28;3307;-70
2023/01/24 20:24:39;;;;;;;;;;;;;;;0.28;100.00;97190.44;10518530;28;3342;-71
2023/01/24 20:29:42;;;;;;;;;;;;;;;0.22;100.00;97192.78;10526361;28;3523;-72
2023/01/24 20:34:46;;;;;;;;;;;;;;;0.27;100.00;97184.31;10524311;28;3330;-72
2023/01/24 20:39:50;;;;;;;;;;;;;;;0.23;100.00;97180.38;10505218;28;3322;-73
2023/01/24 20:44:54;;;;;;;;;;;;;;;0.17;100.00;97181.88;10520842;28;3443;-74
2023/01/24 20:49:59;;;;;;;;;;;;;;;0.22;100.00;97181.38;10524254;28;3338;-75
2023/01/24 20:55:02;;;;;;;;;;;;;;;0.14;100.00;97182.25;10525236;28;3443;-70
2023/01/24 21:00:06;;;;;;;;;;;;;;;0.15;100.00;97191.00;10517646;28;3364;-68
2023/01/24 21:05:10;;;;;;;;;;;;;;;0.22;100.00;97186.66;10524946;28;3528;-71
2023/01/24 21:10:15;;;;;;;;;;;;;;;0.13;100.00;97177.97;10526544;28;3329;-70
2023/01/24 21:15:20;;;;;;;;;;;;;;;0.17;100.00;97170.50;10520225;28;3366;-70
2023/01/24 21:20:25;;;;;;;;;;;;;;;0.15;100.00;97172.50;10532180;28;3339;-71
2023/01/24 21:25:28;;;;;;;;;;;;;;;0.13;100.00;97177.97;10530329;28;3384;-71
2023/01/24 21:30:32;;;;;;;;;;;;;;;0.17;100.00;97178.41;10521942;28;3434;-70
2023/01/24 21:35:36;;;;;;;;;;;;;;;0.17;100.00;97181.06;10528068;28;3303;-70
2023/01/24 21:46:03;;;;;;;;;;;;;;;0.13;100.00;97183.25;10519092;28;3371;-70
2023/01/24 21:51:07;;;;;;;;;;;;;;;0.09;100.00;97186.41;10533583;28;3397;-70
2023/01/24 22:01:33;;;;;;;;;;;;;;;0.08;100.00;97171.53;10529656;28;3370;-71
2023/01/24 22:06:37;;;;;;;;;;;;;;;0.01;100.00;97184.63;10514625;28;3263;-71
2023/01/24 22:11:41;;;;;;;;;;;;;;;0.04;100.00;97176.34;10531890;28;3329;-70
2023/01/24 22:16:44;;;;;;;;;;;;;;;0.11;100.00;97168.53;10513862;28;3361;-70
2023/01/24 22:21:47;;;;;;;;;;;;;;;0.04;100.00;97175.53;10528281;28;3787;-73
2023/01/24 22:26:51;;;;;;;;;;;;;;;0.05;100.00;97180.63;10533659;28;3323;-71
2023/01/24 22:31:56;;;;;;;;;;;;;;;0.00;100.00;97167.13;10530493;28;3406;-75
2023/01/24 22:37:00;;;;;;;;;;;;;;;0.01;100.00;97166.13;10525867;28;3378;-75
2023/01/24 22:42:03;;;;;;;;;;;;;;;0.04;100.00;97164.94;10529086;28;3430;-69
2023/01/24 22:47:06;;;;;;;;;;;;;;;-0.02;100.00;97164.63;10511864;28;3315;-69
2023/01/24 22:52:10;;;;;;;;;;;;;;;-0.05;100.00;97161.53;10521391;28;3362;-71
2023/01/24 22:57:14;;;;;;;;;;;;;;;-0.08;100.00;97162.69;10527630;28;3326;-70
2023/01/24 23:02:22;;;;;;;;;;;;;;;-0.11;100.00;97155.13;10524693;28;3362;-69
2023/01/24 23:07:26;;;;;;;;;;;;;;;-0.15;100.00;97158.25;10527362;28;3320;-69
2023/01/24 23:17:50;;;;;;;;;;;;;;;-0.10;100.00;97150.66;10519975;28;3299;-69
2023/01/24 23:22:53;;;;;;;;;;;;;;;-0.19;100.00;97139.31;10530689;28;3259;-70
2023/01/24 23:27:59;;;;;;;;;;;;;;;-0.09;100.00;97145.19;10516948;28;3318;-71
2023/01/24 23:33:03;;;;;;;;;;;;;;;-0.20;100.00;97135.00;10528269;28;3349;-69
2023/01/24 23:38:07;;;;;;;;;;;;;;;-0.25;100.00;97136.50;10517316;28;3452;-73
2023/01/24 23:43:12;;;;;;;;;;;;;;;-0.21;100.00;97133.34;10527811;28;3254;-73
2023/01/24 23:48:15;;;;;;;;;;;;;;;-0.27;100.00;97121.63;10531169;28;3271;-71
2023/01/24 23:53:18;;;;;;;;;;;;;;;-0.34;100.00;97131.25;10516657;28;3354;-72
2023/01/24 23:58:22;;;;;;;;;;;;;;;-0.32;100.00;97120.50;10510547;28;3307;-75
